Glenlivet, United Kingdom
Current Conditions -  °F | °C
As of 3:50 PM on Wednesday 28 Jan 2015 (Local Time) from EGQK Reporting Station
Broken Clouds Broken Clouds  
Wind Chill: 25°   Ceiling: 8000
Heat Index: 36°   Visibility: 6mi
Dew Point: 30°   Wind: 20mph
Humidity: 81%   Direction: 250°WSW
Pressure: 29.03"   Gusts: NA
Location:  57.35°N, 3.35°W
Report Text: EGQK 281550Z AUTO 25017KT 9999 FEW024/// SCT033/// BKN080/// 02/M01 Q0983
Loading
Personal Weather Stations






























Interactive Weather Map New forecast layout! Learn more

10-Day Weather Forecast

Advertisements
Track Severe Weather on mobile